sensor_id;sensor_type;location;lat;lon;timestamp;temperature;humidity
58554;DHT22;48119;53.218;6.576;2024-03-08T00:00:08;7.90;99.90
58554;DHT22;48119;53.218;6.576;2024-03-08T00:02:47;7.90;99.90
58554;DHT22;48119;53.218;6.576;2024-03-08T00:05:14;7.90;99.90
58554;DHT22;48119;53.218;6.576;2024-03-08T00:07:41;7.90;99.90
58554;DHT22;48119;53.218;6.576;2024-03-08T00:10:09;7.90;99.90
58554;DHT22;48119;53.218;6.576;2024-03-08T00:12:39;7.90;99.90
58554;DHT22;48119;53.218;6.576;2024-03-08T00:15:11;7.80;99.90
58554;DHT22;48119;53.218;6.576;2024-03-08T00:17:43;7.80;99.90
58554;DHT22;48119;53.218;6.576;2024-03-08T00:20:09;7.90;99.90
58554;DHT22;48119;53.218;6.576;2024-03-08T00:22:38;7.80;99.90
58554;DHT22;48119;53.218;6.576;2024-03-08T00:25:05;7.80;99.90
58554;DHT22;48119;53.218;6.576;2024-03-08T00:27:34;7.70;99.90
58554;DHT22;48119;53.218;6.576;2024-03-08T00:30:00;7.70;99.90
58554;DHT22;48119;53.218;6.576;2024-03-08T00:32:27;7.70;99.90
58554;DHT22;48119;53.218;6.576;2024-03-08T00:34:57;7.70;99.90
58554;DHT22;48119;53.218;6.576;2024-03-08T00:37:23;7.70;99.90
58554;DHT22;48119;53.218;6.576;2024-03-08T00:39:49;7.70;99.90
58554;DHT22;48119;53.218;6.576;2024-03-08T00:42:20;7.70;99.90
58554;DHT22;48119;53.218;6.576;2024-03-08T00:44:46;7.70;99.90
58554;DHT22;48119;53.218;6.576;2024-03-08T00:47:13;7.70;99.90
58554;DHT22;48119;53.218;6.576;2024-03-08T00:49:41;7.60;99.90
58554;DHT22;48119;53.218;6.576;2024-03-08T00:52:08;7.70;99.90
58554;DHT22;48119;53.218;6.576;2024-03-08T00:54:36;7.60;99.90
58554;DHT22;48119;53.218;6.576;2024-03-08T00:57:03;7.60;99.90
58554;DHT22;48119;53.218;6.576;2024-03-08T00:59:29;7.60;99.90
58554;DHT22;48119;53.218;6.576;2024-03-08T01:01:58;7.60;99.90
58554;DHT22;48119;53.218;6.576;2024-03-08T01:04:25;7.60;99.90
58554;DHT22;48119;53.218;6.576;2024-03-08T01:06:55;7.60;99.90
58554;DHT22;48119;53.218;6.576;2024-03-08T01:09:22;7.60;99.90
58554;DHT22;48119;53.218;6.576;2024-03-08T01:11:48;7.60;99.90
58554;DHT22;48119;53.218;6.576;2024-03-08T01:14:15;7.60;99.90
58554;DHT22;48119;53.218;6.576;2024-03-08T01:16:41;7.60;99.90
58554;DHT22;48119;53.218;6.576;2024-03-08T01:19:07;7.60;99.90
58554;DHT22;48119;53.218;6.576;2024-03-08T01:21:32;7.50;99.90
58554;DHT22;48119;53.218;6.576;2024-03-08T01:23:58;7.50;99.90
58554;DHT22;48119;53.218;6.576;2024-03-08T01:26:24;7.50;99.90
58554;DHT22;48119;53.218;6.576;2024-03-08T01:28:50;7.50;99.90
58554;DHT22;48119;53.218;6.576;2024-03-08T01:31:16;7.50;99.90
58554;DHT22;48119;53.218;6.576;2024-03-08T01:33:42;7.50;99.90
58554;DHT22;48119;53.218;6.576;2024-03-08T01:36:08;7.50;99.90
58554;DHT22;48119;53.218;6.576;2024-03-08T01:38:33;7.50;99.90
58554;DHT22;48119;53.218;6.576;2024-03-08T01:40:59;7.50;99.90
58554;DHT22;48119;53.218;6.576;2024-03-08T01:43:27;7.40;99.90
58554;DHT22;48119;53.218;6.576;2024-03-08T01:45:59;7.50;99.90
58554;DHT22;48119;53.218;6.576;2024-03-08T01:48:29;7.50;99.90
58554;DHT22;48119;53.218;6.576;2024-03-08T01:50:56;7.40;99.90
58554;DHT22;48119;53.218;6.576;2024-03-08T01:53:24;7.40;99.90
58554;DHT22;48119;53.218;6.576;2024-03-08T01:55:54;7.50;99.90
58554;DHT22;48119;53.218;6.576;2024-03-08T01:58:21;7.40;99.90
58554;DHT22;48119;53.218;6.576;2024-03-08T02:00:48;7.30;99.90
58554;DHT22;48119;53.218;6.576;2024-03-08T02:03:18;7.30;99.90
58554;DHT22;48119;53.218;6.576;2024-03-08T02:05:43;7.30;99.90
58554;DHT22;48119;53.218;6.576;2024-03-08T02:08:10;7.30;99.90
58554;DHT22;48119;53.218;6.576;2024-03-08T02:10:43;7.30;99.90
58554;DHT22;48119;53.218;6.576;2024-03-08T02:13:09;7.30;99.90
58554;DHT22;48119;53.218;6.576;2024-03-08T02:15:54;7.30;99.90
58554;DHT22;48119;53.218;6.576;2024-03-08T02:18:20;7.30;99.90
58554;DHT22;48119;53.218;6.576;2024-03-08T02:20:51;7.30;99.90
58554;DHT22;48119;53.218;6.576;2024-03-08T02:23:18;7.30;99.90
58554;DHT22;48119;53.218;6.576;2024-03-08T02:25:45;7.30;99.90
58554;DHT22;48119;53.218;6.576;2024-03-08T02:28:11;7.30;99.90
58554;DHT22;48119;53.218;6.576;2024-03-08T02:30:38;7.30;99.90
58554;DHT22;48119;53.218;6.576;2024-03-08T02:33:07;7.30;99.90
58554;DHT22;48119;53.218;6.576;2024-03-08T02:35:35;7.20;99.90
58554;DHT22;48119;53.218;6.576;2024-03-08T02:38:01;7.20;99.90
58554;DHT22;48119;53.218;6.576;2024-03-08T02:40:29;7.20;99.90
58554;DHT22;48119;53.218;6.576;2024-03-08T02:42:55;7.20;99.90
58554;DHT22;48119;53.218;6.576;2024-03-08T02:45:20;7.20;99.90
58554;DHT22;48119;53.218;6.576;2024-03-08T02:47:46;7.20;99.90
58554;DHT22;48119;53.218;6.576;2024-03-08T02:50:15;7.20;99.90
58554;DHT22;48119;53.218;6.576;2024-03-08T02:52:42;7.20;99.90
58554;DHT22;48119;53.218;6.576;2024-03-08T02:55:09;7.20;99.90
58554;DHT22;48119;53.218;6.576;2024-03-08T02:57:36;7.20;99.90
58554;DHT22;48119;53.218;6.576;2024-03-08T03:00:02;7.20;99.90
58554;DHT22;48119;53.218;6.576;2024-03-08T03:02:29;7.20;99.90
58554;DHT22;48119;53.218;6.576;2024-03-08T03:04:55;7.20;99.90
58554;DHT22;48119;53.218;6.576;2024-03-08T03:07:23;7.10;99.90
58554;DHT22;48119;53.218;6.576;2024-03-08T03:09:53;7.20;99.90
58554;DHT22;48119;53.218;6.576;2024-03-08T03:12:18;7.10;99.90
58554;DHT22;48119;53.218;6.576;2024-03-08T03:14:44;7.10;99.90
58554;DHT22;48119;53.218;6.576;2024-03-08T03:17:10;7.10;99.90
58554;DHT22;48119;53.218;6.576;2024-03-08T03:19:36;7.10;99.90
58554;DHT22;48119;53.218;6.576;2024-03-08T03:22:02;7.00;99.90
58554;DHT22;48119;53.218;6.576;2024-03-08T03:24:28;7.10;99.90
58554;DHT22;48119;53.218;6.576;2024-03-08T03:26:55;7.00;99.90
58554;DHT22;48119;53.218;6.576;2024-03-08T03:29:20;7.00;99.90
58554;DHT22;48119;53.218;6.576;2024-03-08T03:31:46;7.00;99.90
58554;DHT22;48119;53.218;6.576;2024-03-08T03:34:12;7.00;99.90
58554;DHT22;48119;53.218;6.576;2024-03-08T03:36:38;6.90;99.90
58554;DHT22;48119;53.218;6.576;2024-03-08T03:39:10;6.90;99.90
58554;DHT22;48119;53.218;6.576;2024-03-08T03:41:41;6.90;99.90
58554;DHT22;48119;53.218;6.576;2024-03-08T03:44:07;6.90;99.90
58554;DHT22;48119;53.218;6.576;2024-03-08T03:46:33;6.90;99.90
58554;DHT22;48119;53.218;6.576;2024-03-08T03:48:59;6.90;99.90
58554;DHT22;48119;53.218;6.576;2024-03-08T03:51:25;6.90;99.90
58554;DHT22;48119;53.218;6.576;2024-03-08T03:53:51;6.90;99.90
58554;DHT22;48119;53.218;6.576;2024-03-08T03:56:18;6.90;99.90
58554;DHT22;48119;53.218;6.576;2024-03-08T03:58:44;6.90;99.90
58554;DHT22;48119;53.218;6.576;2024-03-08T04:01:10;6.90;99.90
58554;DHT22;48119;53.218;6.576;2024-03-08T04:03:36;6.90;99.90
58554;DHT22;48119;53.218;6.576;2024-03-08T04:06:04;6.90;99.90
58554;DHT22;48119;53.218;6.576;2024-03-08T04:08:30;6.90;99.90
58554;DHT22;48119;53.218;6.576;2024-03-08T04:10:56;6.90;99.90
58554;DHT22;48119;53.218;6.576;2024-03-08T04:13:23;6.90;99.90
58554;DHT22;48119;53.218;6.576;2024-03-08T04:15:49;6.80;99.90
58554;DHT22;48119;53.218;6.576;2024-03-08T04:18:15;6.80;99.90
58554;DHT22;48119;53.218;6.576;2024-03-08T04:20:41;6.80;99.90
58554;DHT22;48119;53.218;6.576;2024-03-08T04:23:07;6.80;99.90
58554;DHT22;48119;53.218;6.576;2024-03-08T04:25:32;6.80;99.90
58554;DHT22;48119;53.218;6.576;2024-03-08T04:27:58;6.80;99.90
58554;DHT22;48119;53.218;6.576;2024-03-08T04:30:24;6.70;99.90
58554;DHT22;48119;53.218;6.576;2024-03-08T04:32:50;6.70;99.90
58554;DHT22;48119;53.218;6.576;2024-03-08T04:35:16;6.70;99.90
58554;DHT22;48119;53.218;6.576;2024-03-08T04:37:42;6.70;99.90
58554;DHT22;48119;53.218;6.576;2024-03-08T04:40:08;6.70;99.90
58554;DHT22;48119;53.218;6.576;2024-03-08T04:42:34;6.60;99.90
58554;DHT22;48119;53.218;6.576;2024-03-08T04:45:01;6.60;99.90
58554;DHT22;48119;53.218;6.576;2024-03-08T04:47:26;6.60;99.90
58554;DHT22;48119;53.218;6.576;2024-03-08T04:49:52;6.60;99.90
58554;DHT22;48119;53.218;6.576;2024-03-08T04:52:18;6.60;99.90
58554;DHT22;48119;53.218;6.576;2024-03-08T04:54:44;6.60;99.90
58554;DHT22;48119;53.218;6.576;2024-03-08T04:57:10;6.60;99.90
58554;DHT22;48119;53.218;6.576;2024-03-08T04:59:36;6.60;99.90
58554;DHT22;48119;53.218;6.576;2024-03-08T05:02:02;6.60;99.90
58554;DHT22;48119;53.218;6.576;2024-03-08T05:04:28;6.60;99.90
58554;DHT22;48119;53.218;6.576;2024-03-08T05:06:55;6.60;99.90
58554;DHT22;48119;53.218;6.576;2024-03-08T05:09:21;6.60;99.90
58554;DHT22;48119;53.218;6.576;2024-03-08T05:11:47;6.60;99.90
58554;DHT22;48119;53.218;6.576;2024-03-08T05:14:14;6.60;99.90
58554;DHT22;48119;53.218;6.576;2024-03-08T05:16:47;6.60;99.90
58554;DHT22;48119;53.218;6.576;2024-03-08T05:19:19;6.60;99.90
58554;DHT22;48119;53.218;6.576;2024-03-08T05:21:48;6.50;99.90
58554;DHT22;48119;53.218;6.576;2024-03-08T05:24:14;6.50;99.90
58554;DHT22;48119;53.218;6.576;2024-03-08T05:26:41;6.50;99.90
58554;DHT22;48119;53.218;6.576;2024-03-08T05:29:07;6.50;99.90
58554;DHT22;48119;53.218;6.576;2024-03-08T05:31:50;6.50;99.90
58554;DHT22;48119;53.218;6.576;2024-03-08T05:34:18;6.50;99.90
58554;DHT22;48119;53.218;6.576;2024-03-08T05:36:45;6.40;99.90
58554;DHT22;48119;53.218;6.576;2024-03-08T05:39:18;6.40;99.90
58554;DHT22;48119;53.218;6.576;2024-03-08T05:41:45;6.50;99.90
58554;DHT22;48119;53.218;6.576;2024-03-08T05:44:11;6.40;99.90
58554;DHT22;48119;53.218;6.576;2024-03-08T05:46:39;6.40;99.90
58554;DHT22;48119;53.218;6.576;2024-03-08T05:49:08;6.40;99.90
58554;DHT22;48119;53.218;6.576;2024-03-08T05:51:37;6.40;99.90
58554;DHT22;48119;53.218;6.576;2024-03-08T05:54:12;6.40;99.90
58554;DHT22;48119;53.218;6.576;2024-03-08T05:56:39;6.40;99.90
58554;DHT22;48119;53.218;6.576;2024-03-08T05:59:07;6.30;99.90
58554;DHT22;48119;53.218;6.576;2024-03-08T06:01:34;6.30;99.90
58554;DHT22;48119;53.218;6.576;2024-03-08T06:04:07;6.40;99.90
58554;DHT22;48119;53.218;6.576;2024-03-08T06:06:33;6.30;99.90
58554;DHT22;48119;53.218;6.576;2024-03-08T06:08:59;6.30;99.90
58554;DHT22;48119;53.218;6.576;2024-03-08T06:11:25;6.30;99.90
58554;DHT22;48119;53.218;6.576;2024-03-08T06:13:55;6.30;99.90
58554;DHT22;48119;53.218;6.576;2024-03-08T06:16:26;6.30;99.90
58554;DHT22;48119;53.218;6.576;2024-03-08T06:18:57;6.30;99.90
58554;DHT22;48119;53.218;6.576;2024-03-08T06:21:24;6.20;99.90
58554;DHT22;48119;53.218;6.576;2024-03-08T06:23:56;6.20;99.90
58554;DHT22;48119;53.218;6.576;2024-03-08T06:26:23;6.20;99.90
58554;DHT22;48119;53.218;6.576;2024-03-08T06:28:50;6.30;99.90
58554;DHT22;48119;53.218;6.576;2024-03-08T06:31:16;6.20;99.90
58554;DHT22;48119;53.218;6.576;2024-03-08T06:33:42;6.30;99.90
58554;DHT22;48119;53.218;6.576;2024-03-08T06:36:09;6.30;99.90
58554;DHT22;48119;53.218;6.576;2024-03-08T06:38:35;6.30;99.90
58554;DHT22;48119;53.218;6.576;2024-03-08T06:41:00;6.30;99.90
58554;DHT22;48119;53.218;6.576;2024-03-08T06:43:29;6.30;99.90
58554;DHT22;48119;53.218;6.576;2024-03-08T06:45:59;6.30;99.90
58554;DHT22;48119;53.218;6.576;2024-03-08T06:48:25;6.30;99.90
58554;DHT22;48119;53.218;6.576;2024-03-08T06:50:51;6.30;99.90
58554;DHT22;48119;53.218;6.576;2024-03-08T06:53:17;6.30;99.90
58554;DHT22;48119;53.218;6.576;2024-03-08T06:55:45;6.30;99.90
58554;DHT22;48119;53.218;6.576;2024-03-08T06:58:11;6.30;99.90
58554;DHT22;48119;53.218;6.576;2024-03-08T07:00:37;6.30;99.90
58554;DHT22;48119;53.218;6.576;2024-03-08T07:03:03;6.20;99.90
58554;DHT22;48119;53.218;6.576;2024-03-08T07:05:32;6.20;99.90
58554;DHT22;48119;53.218;6.576;2024-03-08T07:07:58;6.20;99.90
58554;DHT22;48119;53.218;6.576;2024-03-08T07:10:24;6.20;99.90
58554;DHT22;48119;53.218;6.576;2024-03-08T07:12:53;6.20;99.90
58554;DHT22;48119;53.218;6.576;2024-03-08T07:15:19;6.20;99.90
58554;DHT22;48119;53.218;6.576;2024-03-08T07:17:46;6.10;99.90
58554;DHT22;48119;53.218;6.576;2024-03-08T07:20:13;6.20;99.90
58554;DHT22;48119;53.218;6.576;2024-03-08T07:22:39;6.20;99.90
58554;DHT22;48119;53.218;6.576;2024-03-08T07:25:06;6.20;99.90
58554;DHT22;48119;53.218;6.576;2024-03-08T07:27:48;6.20;99.90
58554;DHT22;48119;53.218;6.576;2024-03-08T07:30:14;6.20;99.90
58554;DHT22;48119;53.218;6.576;2024-03-08T07:32:58;6.20;99.90
58554;DHT22;48119;53.218;6.576;2024-03-08T07:35:24;6.30;99.90
58554;DHT22;48119;53.218;6.576;2024-03-08T07:37:52;6.30;99.90
58554;DHT22;48119;53.218;6.576;2024-03-08T07:40:21;6.30;99.90
58554;DHT22;48119;53.218;6.576;2024-03-08T07:42:47;6.30;99.90
58554;DHT22;48119;53.218;6.576;2024-03-08T07:45:13;6.30;99.90
58554;DHT22;48119;53.218;6.576;2024-03-08T07:47:39;6.30;99.90
58554;DHT22;48119;53.218;6.576;2024-03-08T07:50:06;6.40;99.90
58554;DHT22;48119;53.218;6.576;2024-03-08T07:52:34;6.40;99.90
58554;DHT22;48119;53.218;6.576;2024-03-08T07:55:01;6.40;99.90
58554;DHT22;48119;53.218;6.576;2024-03-08T07:57:27;6.40;99.90
58554;DHT22;48119;53.218;6.576;2024-03-08T07:59:52;6.40;99.90
58554;DHT22;48119;53.218;6.576;2024-03-08T08:02:18;6.40;99.90
58554;DHT22;48119;53.218;6.576;2024-03-08T08:04:44;6.50;99.90
58554;DHT22;48119;53.218;6.576;2024-03-08T08:07:13;6.40;99.90
58554;DHT22;48119;53.218;6.576;2024-03-08T08:09:40;6.40;99.90
58554;DHT22;48119;53.218;6.576;2024-03-08T08:12:11;6.40;99.90
58554;DHT22;48119;53.218;6.576;2024-03-08T08:14:38;6.40;99.90
58554;DHT22;48119;53.218;6.576;2024-03-08T08:17:04;6.40;99.90
58554;DHT22;48119;53.218;6.576;2024-03-08T08:19:31;6.40;99.90
58554;DHT22;48119;53.218;6.576;2024-03-08T08:21:57;6.50;99.90
58554;DHT22;48119;53.218;6.576;2024-03-08T08:24:23;6.50;99.90
58554;DHT22;48119;53.218;6.576;2024-03-08T08:26:49;6.60;99.90
58554;DHT22;48119;53.218;6.576;2024-03-08T08:29:16;6.60;99.90
58554;DHT22;48119;53.218;6.576;2024-03-08T08:31:42;6.60;99.90
58554;DHT22;48119;53.218;6.576;2024-03-08T08:34:09;6.60;99.90
58554;DHT22;48119;53.218;6.576;2024-03-08T08:36:37;6.60;99.90
58554;DHT22;48119;53.218;6.576;2024-03-08T08:39:05;6.60;99.90
58554;DHT22;48119;53.218;6.576;2024-03-08T08:41:31;6.70;99.90
58554;DHT22;48119;53.218;6.576;2024-03-08T08:43:57;6.70;99.90
58554;DHT22;48119;53.218;6.576;2024-03-08T08:46:23;6.70;99.90
58554;DHT22;48119;53.218;6.576;2024-03-08T08:48:48;6.70;99.90
58554;DHT22;48119;53.218;6.576;2024-03-08T08:51:14;6.70;99.90
58554;DHT22;48119;53.218;6.576;2024-03-08T08:53:43;6.80;99.90
58554;DHT22;48119;53.218;6.576;2024-03-08T08:56:11;6.80;99.90
58554;DHT22;48119;53.218;6.576;2024-03-08T08:58:41;6.80;99.90
58554;DHT22;48119;53.218;6.576;2024-03-08T09:01:11;6.90;99.90
58554;DHT22;48119;53.218;6.576;2024-03-08T09:03:37;6.90;99.90
58554;DHT22;48119;53.218;6.576;2024-03-08T09:06:06;7.00;99.90
58554;DHT22;48119;53.218;6.576;2024-03-08T09:08:39;6.90;99.90
58554;DHT22;48119;53.218;6.576;2024-03-08T09:11:05;6.90;99.90
58554;DHT22;48119;53.218;6.576;2024-03-08T09:13:31;6.90;99.90
58554;DHT22;48119;53.218;6.576;2024-03-08T09:15:57;7.00;99.90
58554;DHT22;48119;53.218;6.576;2024-03-08T09:18:23;7.00;99.90
58554;DHT22;48119;53.218;6.576;2024-03-08T09:20:50;7.10;99.90
58554;DHT22;48119;53.218;6.576;2024-03-08T09:23:19;7.00;99.90
58554;DHT22;48119;53.218;6.576;2024-03-08T09:25:45;7.10;99.90
58554;DHT22;48119;53.218;6.576;2024-03-08T09:28:12;7.10;99.90
58554;DHT22;48119;53.218;6.576;2024-03-08T09:30:38;7.10;99.90
58554;DHT22;48119;53.218;6.576;2024-03-08T09:33:05;7.10;99.90
58554;DHT22;48119;53.218;6.576;2024-03-08T09:35:34;7.10;99.90
58554;DHT22;48119;53.218;6.576;2024-03-08T09:38:01;7.00;99.90
58554;DHT22;48119;53.218;6.576;2024-03-08T09:40:27;7.00;99.90
58554;DHT22;48119;53.218;6.576;2024-03-08T09:42:53;7.10;99.90
58554;DHT22;48119;53.218;6.576;2024-03-08T09:45:20;7.10;99.90
58554;DHT22;48119;53.218;6.576;2024-03-08T09:47:50;7.10;99.90
58554;DHT22;48119;53.218;6.576;2024-03-08T09:50:17;7.10;99.90
58554;DHT22;48119;53.218;6.576;2024-03-08T09:52:44;7.00;99.90
58554;DHT22;48119;53.218;6.576;2024-03-08T09:55:16;7.10;99.90
58554;DHT22;48119;53.218;6.576;2024-03-08T09:57:43;7.20;99.90
58554;DHT22;48119;53.218;6.576;2024-03-08T10:00:32;7.10;99.90
58554;DHT22;48119;53.218;6.576;2024-03-08T10:03:01;7.10;99.90
58554;DHT22;48119;53.218;6.576;2024-03-08T10:05:27;7.10;99.90
58554;DHT22;48119;53.218;6.576;2024-03-08T10:07:53;7.20;99.90
58554;DHT22;48119;53.218;6.576;2024-03-08T10:10:19;7.20;99.90
58554;DHT22;48119;53.218;6.576;2024-03-08T10:12:48;7.30;99.90
58554;DHT22;48119;53.218;6.576;2024-03-08T10:15:16;7.30;99.90
58554;DHT22;48119;53.218;6.576;2024-03-08T10:17:42;7.40;99.90
58554;DHT22;48119;53.218;6.576;2024-03-08T10:20:18;7.40;99.90
58554;DHT22;48119;53.218;6.576;2024-03-08T10:22:44;7.50;99.90
58554;DHT22;48119;53.218;6.576;2024-03-08T10:25:11;7.50;99.90
58554;DHT22;48119;53.218;6.576;2024-03-08T10:27:41;7.50;99.90
58554;DHT22;48119;53.218;6.576;2024-03-08T10:30:15;7.60;99.90
58554;DHT22;48119;53.218;6.576;2024-03-08T10:32:41;7.70;99.90
58554;DHT22;48119;53.218;6.576;2024-03-08T10:35:08;7.70;99.90
58554;DHT22;48119;53.218;6.576;2024-03-08T10:40:09;7.80;99.90
58554;DHT22;48119;53.218;6.576;2024-03-08T10:42:56;7.90;99.90
58554;DHT22;48119;53.218;6.576;2024-03-08T10:45:37;7.90;99.90
58554;DHT22;48119;53.218;6.576;2024-03-08T10:48:29;8.00;99.90
58554;DHT22;48119;53.218;6.576;2024-03-08T10:51:02;8.10;99.90
58554;DHT22;48119;53.218;6.576;2024-03-08T10:53:29;8.10;99.90
58554;DHT22;48119;53.218;6.576;2024-03-08T10:55:58;8.10;99.90
58554;DHT22;48119;53.218;6.576;2024-03-08T10:58:28;8.10;99.90
58554;DHT22;48119;53.218;6.576;2024-03-08T11:00:54;8.20;99.90
58554;DHT22;48119;53.218;6.576;2024-03-08T11:06:18;8.30;99.90
58554;DHT22;48119;53.218;6.576;2024-03-08T11:08:49;8.30;99.90
58554;DHT22;48119;53.218;6.576;2024-03-08T11:11:28;8.30;99.90
58554;DHT22;48119;53.218;6.576;2024-03-08T11:13:58;8.40;99.90
58554;DHT22;48119;53.218;6.576;2024-03-08T11:21:36;8.50;99.90
58554;DHT22;48119;53.218;6.576;2024-03-08T11:24:14;8.50;99.90
58554;DHT22;48119;53.218;6.576;2024-03-08T11:26:42;8.60;99.90
58554;DHT22;48119;53.218;6.576;2024-03-08T11:34:36;8.70;99.90
58554;DHT22;48119;53.218;6.576;2024-03-08T11:37:11;8.70;99.90
58554;DHT22;48119;53.218;6.576;2024-03-08T11:39:47;8.70;99.90
58554;DHT22;48119;53.218;6.576;2024-03-08T11:42:15;8.70;99.90
58554;DHT22;48119;53.218;6.576;2024-03-08T11:44:46;8.80;99.90
58554;DHT22;48119;53.218;6.576;2024-03-08T11:47:13;8.90;99.90
58554;DHT22;48119;53.218;6.576;2024-03-08T11:49:40;8.90;99.90
58554;DHT22;48119;53.218;6.576;2024-03-08T11:52:13;8.90;99.90
58554;DHT22;48119;53.218;6.576;2024-03-08T11:54:47;9.00;99.90
58554;DHT22;48119;53.218;6.576;2024-03-08T11:57:23;9.00;99.90
58554;DHT22;48119;53.218;6.576;2024-03-08T11:59:56;9.00;99.90
58554;DHT22;48119;53.218;6.576;2024-03-08T12:02:32;9.10;99.90
58554;DHT22;48119;53.218;6.576;2024-03-08T12:05:01;9.10;99.90
58554;DHT22;48119;53.218;6.576;2024-03-08T12:07:29;9.20;99.90
58554;DHT22;48119;53.218;6.576;2024-03-08T12:10:22;9.20;99.90
58554;DHT22;48119;53.218;6.576;2024-03-08T12:12:55;9.30;99.90
58554;DHT22;48119;53.218;6.576;2024-03-08T12:15:23;9.40;99.90
58554;DHT22;48119;53.218;6.576;2024-03-08T12:17:50;9.40;99.90
58554;DHT22;48119;53.218;6.576;2024-03-08T12:20:24;9.50;99.90
58554;DHT22;48119;53.218;6.576;2024-03-08T12:22:58;9.60;99.90
58554;DHT22;48119;53.218;6.576;2024-03-08T12:25:34;9.60;99.90
58554;DHT22;48119;53.218;6.576;2024-03-08T12:28:09;9.60;99.90
58554;DHT22;48119;53.218;6.576;2024-03-08T12:30:49;9.60;99.90
58554;DHT22;48119;53.218;6.576;2024-03-08T12:33:20;9.70;99.90
58554;DHT22;48119;53.218;6.576;2024-03-08T12:35:52;9.70;99.90
58554;DHT22;48119;53.218;6.576;2024-03-08T12:38:24;9.70;99.90
58554;DHT22;48119;53.218;6.576;2024-03-08T12:40:58;9.60;99.90
58554;DHT22;48119;53.218;6.576;2024-03-08T12:43:24;9.70;99.90
58554;DHT22;48119;53.218;6.576;2024-03-08T12:45:50;9.70;99.90
58554;DHT22;48119;53.218;6.576;2024-03-08T12:48:17;9.70;99.90
58554;DHT22;48119;53.218;6.576;2024-03-08T12:50:42;9.60;99.90
58554;DHT22;48119;53.218;6.576;2024-03-08T12:53:13;9.60;99.90
58554;DHT22;48119;53.218;6.576;2024-03-08T12:55:42;9.60;99.90
58554;DHT22;48119;53.218;6.576;2024-03-08T12:58:07;9.60;99.90
58554;DHT22;48119;53.218;6.576;2024-03-08T13:00:34;9.60;99.90
58554;DHT22;48119;53.218;6.576;2024-03-08T13:03:02;9.60;99.90
58554;DHT22;48119;53.218;6.576;2024-03-08T13:05:28;9.60;99.90
58554;DHT22;48119;53.218;6.576;2024-03-08T13:07:55;9.60;99.90
58554;DHT22;48119;53.218;6.576;2024-03-08T13:10:22;9.60;99.90
58554;DHT22;48119;53.218;6.576;2024-03-08T13:12:48;9.70;99.90
58554;DHT22;48119;53.218;6.576;2024-03-08T13:15:14;9.70;99.90
58554;DHT22;48119;53.218;6.576;2024-03-08T13:17:49;9.70;99.90
58554;DHT22;48119;53.218;6.576;2024-03-08T13:20:15;9.80;99.90
58554;DHT22;48119;53.218;6.576;2024-03-08T13:22:42;9.80;99.90
58554;DHT22;48119;53.218;6.576;2024-03-08T13:25:08;9.80;99.90
58554;DHT22;48119;53.218;6.576;2024-03-08T13:27:40;9.80;99.90
58554;DHT22;48119;53.218;6.576;2024-03-08T13:30:08;9.80;99.90
58554;DHT22;48119;53.218;6.576;2024-03-08T13:32:39;9.90;99.90
58554;DHT22;48119;53.218;6.576;2024-03-08T13:35:05;9.80;99.90
58554;DHT22;48119;53.218;6.576;2024-03-08T13:37:41;9.90;99.90
58554;DHT22;48119;53.218;6.576;2024-03-08T13:40:08;9.90;99.90
58554;DHT22;48119;53.218;6.576;2024-03-08T13:42:37;9.90;99.90
58554;DHT22;48119;53.218;6.576;2024-03-08T13:45:09;9.90;99.90
58554;DHT22;48119;53.218;6.576;2024-03-08T13:47:38;10.00;99.90
58554;DHT22;48119;53.218;6.576;2024-03-08T13:50:08;10.00;99.90
58554;DHT22;48119;53.218;6.576;2024-03-08T13:52:38;10.00;99.90
58554;DHT22;48119;53.218;6.576;2024-03-08T13:55:05;10.00;99.90
58554;DHT22;48119;53.218;6.576;2024-03-08T13:57:31;9.90;99.90
58554;DHT22;48119;53.218;6.576;2024-03-08T13:59:58;9.90;99.90
58554;DHT22;48119;53.218;6.576;2024-03-08T14:02:23;10.00;99.90
58554;DHT22;48119;53.218;6.576;2024-03-08T14:04:54;10.00;99.90
58554;DHT22;48119;53.218;6.576;2024-03-08T14:07:20;10.00;99.90
58554;DHT22;48119;53.218;6.576;2024-03-08T14:09:46;10.00;99.90
58554;DHT22;48119;53.218;6.576;2024-03-08T14:12:12;10.00;99.90
58554;DHT22;48119;53.218;6.576;2024-03-08T14:14:41;10.00;99.90
58554;DHT22;48119;53.218;6.576;2024-03-08T14:17:07;10.00;99.90
58554;DHT22;48119;53.218;6.576;2024-03-08T14:19:35;10.10;99.90
58554;DHT22;48119;53.218;6.576;2024-03-08T14:22:01;10.10;99.90
58554;DHT22;48119;53.218;6.576;2024-03-08T14:24:30;10.10;99.90
58554;DHT22;48119;53.218;6.576;2024-03-08T14:26:59;10.10;99.90
58554;DHT22;48119;53.218;6.576;2024-03-08T14:29:27;10.10;99.90
58554;DHT22;48119;53.218;6.576;2024-03-08T14:31:56;10.10;99.90
58554;DHT22;48119;53.218;6.576;2024-03-08T14:34:26;10.10;99.90
58554;DHT22;48119;53.218;6.576;2024-03-08T14:36:53;10.10;99.90
58554;DHT22;48119;53.218;6.576;2024-03-08T14:39:19;10.10;99.90
58554;DHT22;48119;53.218;6.576;2024-03-08T14:41:55;10.10;99.90
58554;DHT22;48119;53.218;6.576;2024-03-08T14:44:22;10.10;99.90
58554;DHT22;48119;53.218;6.576;2024-03-08T14:46:58;10.10;99.90
58554;DHT22;48119;53.218;6.576;2024-03-08T14:49:25;10.20;99.90
58554;DHT22;48119;53.218;6.576;2024-03-08T14:51:55;10.20;99.90
58554;DHT22;48119;53.218;6.576;2024-03-08T14:54:23;10.20;99.90
58554;DHT22;48119;53.218;6.576;2024-03-08T14:56:49;10.20;99.90
58554;DHT22;48119;53.218;6.576;2024-03-08T14:59:16;10.20;99.90
58554;DHT22;48119;53.218;6.576;2024-03-08T15:01:42;10.20;99.90
58554;DHT22;48119;53.218;6.576;2024-03-08T15:04:09;10.20;99.90
58554;DHT22;48119;53.218;6.576;2024-03-08T15:06:39;10.20;99.90
58554;DHT22;48119;53.218;6.576;2024-03-08T15:09:05;10.10;99.90
58554;DHT22;48119;53.218;6.576;2024-03-08T15:11:41;10.20;99.90
58554;DHT22;48119;53.218;6.576;2024-03-08T15:14:08;10.20;99.90
58554;DHT22;48119;53.218;6.576;2024-03-08T15:16:40;10.20;99.90
58554;DHT22;48119;53.218;6.576;2024-03-08T15:19:08;10.20;99.90
58554;DHT22;48119;53.218;6.576;2024-03-08T15:21:35;10.20;99.90
58554;DHT22;48119;53.218;6.576;2024-03-08T15:24:02;10.20;99.90
58554;DHT22;48119;53.218;6.576;2024-03-08T15:26:29;10.20;99.90
58554;DHT22;48119;53.218;6.576;2024-03-08T15:28:57;10.10;99.90
58554;DHT22;48119;53.218;6.576;2024-03-08T15:31:22;10.10;99.90
58554;DHT22;48119;53.218;6.576;2024-03-08T15:33:50;10.20;99.90
58554;DHT22;48119;53.218;6.576;2024-03-08T15:36:37;10.20;99.90
58554;DHT22;48119;53.218;6.576;2024-03-08T15:39:02;10.20;99.90
58554;DHT22;48119;53.218;6.576;2024-03-08T15:41:28;10.20;99.90
58554;DHT22;48119;53.218;6.576;2024-03-08T15:43:55;10.20;99.90
58554;DHT22;48119;53.218;6.576;2024-03-08T15:46:21;10.20;99.90
58554;DHT22;48119;53.218;6.576;2024-03-08T15:48:50;10.20;99.90
58554;DHT22;48119;53.218;6.576;2024-03-08T15:51:17;10.20;99.90
58554;DHT22;48119;53.218;6.576;2024-03-08T15:53:44;10.30;99.90
58554;DHT22;48119;53.218;6.576;2024-03-08T15:56:16;10.30;99.90
58554;DHT22;48119;53.218;6.576;2024-03-08T15:58:41;10.30;99.90
58554;DHT22;48119;53.218;6.576;2024-03-08T16:01:08;10.20;99.90
58554;DHT22;48119;53.218;6.576;2024-03-08T16:03:36;10.20;99.90
58554;DHT22;48119;53.218;6.576;2024-03-08T16:06:01;10.20;99.90